sensor_id;sensor_type;location;lat;lon;timestamp;temperature;humidity
17178;DHT22;8704;52.006;4.374;2022-07-10T00:00:08;15.10;1.00
17178;DHT22;8704;52.006;4.374;2022-07-10T00:02:37;15.10;1.00
17178;DHT22;8704;52.006;4.374;2022-07-10T00:05:07;15.00;1.00
17178;DHT22;8704;52.006;4.374;2022-07-10T00:07:35;15.00;1.00
17178;DHT22;8704;52.006;4.374;2022-07-10T00:10:03;15.00;1.00
17178;DHT22;8704;52.006;4.374;2022-07-10T00:12:33;14.90;1.00
17178;DHT22;8704;52.006;4.374;2022-07-10T00:15:01;14.90;1.00
17178;DHT22;8704;52.006;4.374;2022-07-10T00:17:29;14.90;1.00
17178;DHT22;8704;52.006;4.374;2022-07-10T00:19:57;14.80;1.00
17178;DHT22;8704;52.006;4.374;2022-07-10T00:22:25;14.90;1.00
17178;DHT22;8704;52.006;4.374;2022-07-10T00:24:53;14.80;1.00
17178;DHT22;8704;52.006;4.374;2022-07-10T00:27:21;14.90;1.00
17178;DHT22;8704;52.006;4.374;2022-07-10T00:29:51;14.80;1.00
17178;DHT22;8704;52.006;4.374;2022-07-10T00:32:19;14.80;1.00
17178;DHT22;8704;52.006;4.374;2022-07-10T00:34:47;14.80;1.00
17178;DHT22;8704;52.006;4.374;2022-07-10T00:37:15;14.80;1.00
17178;DHT22;8704;52.006;4.374;2022-07-10T00:39:43;14.70;1.00
17178;DHT22;8704;52.006;4.374;2022-07-10T00:42:13;14.70;1.00
17178;DHT22;8704;52.006;4.374;2022-07-10T00:44:42;14.60;1.00
17178;DHT22;8704;52.006;4.374;2022-07-10T00:47:11;14.70;1.00
17178;DHT22;8704;52.006;4.374;2022-07-10T00:49:40;14.60;1.00
17178;DHT22;8704;52.006;4.374;2022-07-10T00:52:11;14.60;1.00
17178;DHT22;8704;52.006;4.374;2022-07-10T00:54:42;14.60;1.00
17178;DHT22;8704;52.006;4.374;2022-07-10T00:57:12;14.50;1.00
17178;DHT22;8704;52.006;4.374;2022-07-10T00:59:41;14.50;1.00
17178;DHT22;8704;52.006;4.374;2022-07-10T01:02:11;14.50;1.00
17178;DHT22;8704;52.006;4.374;2022-07-10T01:04:39;14.50;1.00
17178;DHT22;8704;52.006;4.374;2022-07-10T01:07:07;14.50;1.00
17178;DHT22;8704;52.006;4.374;2022-07-10T01:09:35;14.40;1.00
17178;DHT22;8704;52.006;4.374;2022-07-10T01:12:04;14.40;1.00
17178;DHT22;8704;52.006;4.374;2022-07-10T01:14:32;14.40;1.00
17178;DHT22;8704;52.006;4.374;2022-07-10T01:17:04;14.40;1.00
17178;DHT22;8704;52.006;4.374;2022-07-10T01:19:34;14.40;1.00
17178;DHT22;8704;52.006;4.374;2022-07-10T01:22:03;14.30;1.00
17178;DHT22;8704;52.006;4.374;2022-07-10T01:24:31;14.30;1.00
17178;DHT22;8704;52.006;4.374;2022-07-10T01:26:59;14.30;1.00
17178;DHT22;8704;52.006;4.374;2022-07-10T01:29:28;14.20;1.00
17178;DHT22;8704;52.006;4.374;2022-07-10T01:31:56;14.20;1.00
17178;DHT22;8704;52.006;4.374;2022-07-10T01:34:26;14.20;1.00
17178;DHT22;8704;52.006;4.374;2022-07-10T01:36:54;14.20;5.10
17178;DHT22;8704;52.006;4.374;2022-07-10T01:39:24;14.10;28.60
17178;DHT22;8704;52.006;4.374;2022-07-10T01:41:52;14.10;40.80
17178;DHT22;8704;52.006;4.374;2022-07-10T01:44:20;14.10;57.10
17178;DHT22;8704;52.006;4.374;2022-07-10T01:46:48;14.00;62.70
17178;DHT22;8704;52.006;4.374;2022-07-10T01:49:16;14.10;56.60
17178;DHT22;8704;52.006;4.374;2022-07-10T01:51:44;14.00;51.10
17178;DHT22;8704;52.006;4.374;2022-07-10T01:54:12;14.00;1.70
17178;DHT22;8704;52.006;4.374;2022-07-10T01:56:41;14.00;64.10
17178;DHT22;8704;52.006;4.374;2022-07-10T01:59:09;14.00;86.40
17178;DHT22;8704;52.006;4.374;2022-07-10T02:01:37;13.90;92.80
17178;DHT22;8704;52.006;4.374;2022-07-10T02:04:05;13.90;99.90
17178;DHT22;8704;52.006;4.374;2022-07-10T02:06:50;13.90;96.40
17178;DHT22;8704;52.006;4.374;2022-07-10T02:09:18;13.80;99.90
17178;DHT22;8704;52.006;4.374;2022-07-10T02:11:47;13.80;93.70
17178;DHT22;8704;52.006;4.374;2022-07-10T02:14:15;13.80;99.90
17178;DHT22;8704;52.006;4.374;2022-07-10T02:16:43;13.80;98.10
17178;DHT22;8704;52.006;4.374;2022-07-10T02:19:11;13.80;99.90
17178;DHT22;8704;52.006;4.374;2022-07-10T02:21:39;13.70;95.90
17178;DHT22;8704;52.006;4.374;2022-07-10T02:24:08;13.80;99.90
17178;DHT22;8704;52.006;4.374;2022-07-10T02:26:36;13.70;99.90
17178;DHT22;8704;52.006;4.374;2022-07-10T02:29:05;13.70;99.70
17178;DHT22;8704;52.006;4.374;2022-07-10T02:31:33;13.70;99.90
17178;DHT22;8704;52.006;4.374;2022-07-10T02:34:03;13.70;99.90
17178;DHT22;8704;52.006;4.374;2022-07-10T02:36:31;13.70;99.90
17178;DHT22;8704;52.006;4.374;2022-07-10T02:38:59;13.70;99.90
17178;DHT22;8704;52.006;4.374;2022-07-10T02:41:27;13.60;99.90
17178;DHT22;8704;52.006;4.374;2022-07-10T02:43:55;13.60;99.90
17178;DHT22;8704;52.006;4.374;2022-07-10T02:46:24;13.60;99.90
17178;DHT22;8704;52.006;4.374;2022-07-10T02:48:53;13.60;99.90
17178;DHT22;8704;52.006;4.374;2022-07-10T02:51:21;13.60;99.90
17178;DHT22;8704;52.006;4.374;2022-07-10T02:53:49;13.90;99.90
17178;DHT22;8704;52.006;4.374;2022-07-10T02:56:17;13.60;99.90
17178;DHT22;8704;52.006;4.374;2022-07-10T02:58:45;13.60;99.90
17178;DHT22;8704;52.006;4.374;2022-07-10T03:01:13;13.60;99.90
17178;DHT22;8704;52.006;4.374;2022-07-10T03:03:42;13.60;99.90
17178;DHT22;8704;52.006;4.374;2022-07-10T03:06:10;13.60;99.90
17178;DHT22;8704;52.006;4.374;2022-07-10T03:08:38;13.60;99.90
17178;DHT22;8704;52.006;4.374;2022-07-10T03:11:07;13.60;99.90
17178;DHT22;8704;52.006;4.374;2022-07-10T03:13:35;13.60;99.90
17178;DHT22;8704;52.006;4.374;2022-07-10T03:16:03;13.60;99.90
17178;DHT22;8704;52.006;4.374;2022-07-10T03:18:31;13.60;99.90
17178;DHT22;8704;52.006;4.374;2022-07-10T03:21:01;13.60;99.90
17178;DHT22;8704;52.006;4.374;2022-07-10T03:23:28;13.60;99.90
17178;DHT22;8704;52.006;4.374;2022-07-10T03:25:56;13.60;99.90
17178;DHT22;8704;52.006;4.374;2022-07-10T03:28:24;13.60;99.90
17178;DHT22;8704;52.006;4.374;2022-07-10T03:30:52;13.60;99.90
17178;DHT22;8704;52.006;4.374;2022-07-10T03:33:20;13.60;99.90
17178;DHT22;8704;52.006;4.374;2022-07-10T03:35:48;13.50;99.90
17178;DHT22;8704;52.006;4.374;2022-07-10T03:38:17;13.60;99.90
17178;DHT22;8704;52.006;4.374;2022-07-10T03:40:45;13.60;99.90
17178;DHT22;8704;52.006;4.374;2022-07-10T03:43:14;13.60;99.90
17178;DHT22;8704;52.006;4.374;2022-07-10T03:45:42;13.60;99.90
17178;DHT22;8704;52.006;4.374;2022-07-10T03:48:10;13.70;99.90
17178;DHT22;8704;52.006;4.374;2022-07-10T03:50:39;13.70;99.90
17178;DHT22;8704;52.006;4.374;2022-07-10T03:53:07;13.70;99.90
17178;DHT22;8704;52.006;4.374;2022-07-10T03:55:36;13.80;99.90
17178;DHT22;8704;52.006;4.374;2022-07-10T03:58:04;13.90;99.90
17178;DHT22;8704;52.006;4.374;2022-07-10T04:00:31;14.00;99.90
17178;DHT22;8704;52.006;4.374;2022-07-10T04:03:00;14.00;99.90
17178;DHT22;8704;52.006;4.374;2022-07-10T04:05:30;14.10;99.90
17178;DHT22;8704;52.006;4.374;2022-07-10T04:07:59;14.10;99.90
17178;DHT22;8704;52.006;4.374;2022-07-10T04:10:28;14.20;99.90
17178;DHT22;8704;52.006;4.374;2022-07-10T04:12:58;14.20;99.90
17178;DHT22;8704;52.006;4.374;2022-07-10T04:15:27;14.30;99.90
17178;DHT22;8704;52.006;4.374;2022-07-10T04:17:54;14.30;99.90
17178;DHT22;8704;52.006;4.374;2022-07-10T04:20:22;14.40;94.30
17178;DHT22;8704;52.006;4.374;2022-07-10T04:22:51;14.50;99.90
17178;DHT22;8704;52.006;4.374;2022-07-10T04:25:19;14.50;65.60
17178;DHT22;8704;52.006;4.374;2022-07-10T04:27:47;14.60;88.00
17178;DHT22;8704;52.006;4.374;2022-07-10T04:30:16;14.60;99.90
17178;DHT22;8704;52.006;4.374;2022-07-10T04:32:44;14.70;60.10
17178;DHT22;8704;52.006;4.374;2022-07-10T04:35:12;14.80;63.50
17178;DHT22;8704;52.006;4.374;2022-07-10T04:37:40;14.80;80.70
17178;DHT22;8704;52.006;4.374;2022-07-10T04:40:09;14.90;99.90
17178;DHT22;8704;52.006;4.374;2022-07-10T04:42:38;14.90;85.70
17178;DHT22;8704;52.006;4.374;2022-07-10T04:45:06;14.90;88.80
17178;DHT22;8704;52.006;4.374;2022-07-10T04:47:36;15.00;99.90
17178;DHT22;8704;52.006;4.374;2022-07-10T04:50:04;15.00;94.10
17178;DHT22;8704;52.006;4.374;2022-07-10T04:52:32;15.10;54.20
17178;DHT22;8704;52.006;4.374;2022-07-10T04:55:00;15.10;25.10
17178;DHT22;8704;52.006;4.374;2022-07-10T04:57:28;15.20;29.10
17178;DHT22;8704;52.006;4.374;2022-07-10T04:59:56;15.30;8.90
17178;DHT22;8704;52.006;4.374;2022-07-10T05:02:24;15.30;4.50
17178;DHT22;8704;52.006;4.374;2022-07-10T05:04:54;15.40;5.40
17178;DHT22;8704;52.006;4.374;2022-07-10T05:07:22;15.40;1.00
17178;DHT22;8704;52.006;4.374;2022-07-10T05:09:50;15.50;1.00
17178;DHT22;8704;52.006;4.374;2022-07-10T05:12:18;15.60;5.60
17178;DHT22;8704;52.006;4.374;2022-07-10T05:14:46;15.60;1.00
17178;DHT22;8704;52.006;4.374;2022-07-10T05:17:14;15.60;1.00
17178;DHT22;8704;52.006;4.374;2022-07-10T05:19:42;15.70;1.00
17178;DHT22;8704;52.006;4.374;2022-07-10T05:22:11;15.70;10.30
17178;DHT22;8704;52.006;4.374;2022-07-10T05:24:39;15.80;1.00
17178;DHT22;8704;52.006;4.374;2022-07-10T05:27:07;15.90;1.00
17178;DHT22;8704;52.006;4.374;2022-07-10T05:29:35;15.90;1.00
17178;DHT22;8704;52.006;4.374;2022-07-10T05:32:03;15.90;1.00
17178;DHT22;8704;52.006;4.374;2022-07-10T05:34:31;15.90;1.00
17178;DHT22;8704;52.006;4.374;2022-07-10T05:36:59;16.00;1.00
17178;DHT22;8704;52.006;4.374;2022-07-10T05:39:29;16.00;1.00
17178;DHT22;8704;52.006;4.374;2022-07-10T05:41:56;16.10;1.00
17178;DHT22;8704;52.006;4.374;2022-07-10T05:44:24;16.10;1.00
17178;DHT22;8704;52.006;4.374;2022-07-10T05:46:52;16.20;1.00
17178;DHT22;8704;52.006;4.374;2022-07-10T05:49:20;16.20;1.00
17178;DHT22;8704;52.006;4.374;2022-07-10T05:51:48;16.30;1.00
17178;DHT22;8704;52.006;4.374;2022-07-10T05:54:16;16.30;1.00
17178;DHT22;8704;52.006;4.374;2022-07-10T05:56:46;16.40;1.00
17178;DHT22;8704;52.006;4.374;2022-07-10T05:59:13;16.40;1.00
17178;DHT22;8704;52.006;4.374;2022-07-10T06:01:41;16.40;1.00
17178;DHT22;8704;52.006;4.374;2022-07-10T06:04:09;16.60;1.00
17178;DHT22;8704;52.006;4.374;2022-07-10T06:06:37;16.60;1.00
17178;DHT22;8704;52.006;4.374;2022-07-10T06:09:05;16.70;1.00
17178;DHT22;8704;52.006;4.374;2022-07-10T06:11:33;16.70;1.00
17178;DHT22;8704;52.006;4.374;2022-07-10T06:14:03;16.70;1.00
17178;DHT22;8704;52.006;4.374;2022-07-10T06:16:31;16.80;1.00
17178;DHT22;8704;52.006;4.374;2022-07-10T06:18:59;16.80;1.00
17178;DHT22;8704;52.006;4.374;2022-07-10T06:21:26;16.80;1.00
17178;DHT22;8704;52.006;4.374;2022-07-10T06:23:54;16.90;1.00
17178;DHT22;8704;52.006;4.374;2022-07-10T06:26:23;17.00;1.00
17178;DHT22;8704;52.006;4.374;2022-07-10T06:28:51;16.40;1.00
17178;DHT22;8704;52.006;4.374;2022-07-10T06:31:20;17.00;1.00
17178;DHT22;8704;52.006;4.374;2022-07-10T06:33:48;17.10;1.00
17178;DHT22;8704;52.006;4.374;2022-07-10T06:36:16;17.10;1.00
17178;DHT22;8704;52.006;4.374;2022-07-10T06:38:50;17.20;1.00
17178;DHT22;8704;52.006;4.374;2022-07-10T06:41:18;17.20;1.00
17178;DHT22;8704;52.006;4.374;2022-07-10T06:43:47;17.20;1.00
17178;DHT22;8704;52.006;4.374;2022-07-10T06:46:15;17.20;1.00
17178;DHT22;8704;52.006;4.374;2022-07-10T06:48:44;17.30;1.00
17178;DHT22;8704;52.006;4.374;2022-07-10T06:51:11;17.40;1.00
17178;DHT22;8704;52.006;4.374;2022-07-10T06:53:44;17.50;1.00
17178;DHT22;8704;52.006;4.374;2022-07-10T06:56:12;17.50;1.00
17178;DHT22;8704;52.006;4.374;2022-07-10T06:58:42;17.50;1.00
17178;DHT22;8704;52.006;4.374;2022-07-10T07:01:10;17.50;1.00
17178;DHT22;8704;52.006;4.374;2022-07-10T07:03:38;17.60;1.00
17178;DHT22;8704;52.006;4.374;2022-07-10T07:06:07;17.50;1.00
17178;DHT22;8704;52.006;4.374;2022-07-10T07:08:37;17.60;1.00
17178;DHT22;8704;52.006;4.374;2022-07-10T07:11:05;17.60;1.00
17178;DHT22;8704;52.006;4.374;2022-07-10T07:13:33;17.70;1.00
17178;DHT22;8704;52.006;4.374;2022-07-10T07:16:01;17.70;1.00
17178;DHT22;8704;52.006;4.374;2022-07-10T07:18:33;17.80;1.00
17178;DHT22;8704;52.006;4.374;2022-07-10T07:21:04;17.90;1.00
17178;DHT22;8704;52.006;4.374;2022-07-10T07:23:51;17.90;1.00
17178;DHT22;8704;52.006;4.374;2022-07-10T07:26:19;18.00;1.00
17178;DHT22;8704;52.006;4.374;2022-07-10T07:28:47;18.20;1.00
17178;DHT22;8704;52.006;4.374;2022-07-10T07:31:15;18.20;1.00
17178;DHT22;8704;52.006;4.374;2022-07-10T07:33:44;18.30;1.00
17178;DHT22;8704;52.006;4.374;2022-07-10T07:36:12;18.30;1.00
17178;DHT22;8704;52.006;4.374;2022-07-10T07:38:40;18.30;1.00
17178;DHT22;8704;52.006;4.374;2022-07-10T07:41:10;18.30;1.00
17178;DHT22;8704;52.006;4.374;2022-07-10T07:43:38;18.40;1.00
17178;DHT22;8704;52.006;4.374;2022-07-10T07:46:06;18.60;1.00
17178;DHT22;8704;52.006;4.374;2022-07-10T07:48:34;18.60;1.00
17178;DHT22;8704;52.006;4.374;2022-07-10T07:51:03;18.60;1.00
17178;DHT22;8704;52.006;4.374;2022-07-10T07:53:31;18.60;99.90
17178;DHT22;8704;52.006;4.374;2022-07-10T07:55:59;18.70;99.90
17178;DHT22;8704;52.006;4.374;2022-07-10T07:58:28;18.50;99.90
17178;DHT22;8704;52.006;4.374;2022-07-10T08:00:56;18.50;99.90
17178;DHT22;8704;52.006;4.374;2022-07-10T08:03:25;18.60;1.00
17178;DHT22;8704;52.006;4.374;2022-07-10T08:06:13;18.70;1.00
17178;DHT22;8704;52.006;4.374;2022-07-10T08:08:41;18.70;99.90
17178;DHT22;8704;52.006;4.374;2022-07-10T08:11:09;18.70;99.90
17178;DHT22;8704;52.006;4.374;2022-07-10T08:13:38;18.70;99.90
17178;DHT22;8704;52.006;4.374;2022-07-10T08:16:06;18.70;87.50
17178;DHT22;8704;52.006;4.374;2022-07-10T08:18:34;18.90;1.00
17178;DHT22;8704;52.006;4.374;2022-07-10T08:21:03;18.90;1.00
17178;DHT22;8704;52.006;4.374;2022-07-10T08:23:32;18.90;99.90
17178;DHT22;8704;52.006;4.374;2022-07-10T08:26:03;19.00;1.00
17178;DHT22;8704;52.006;4.374;2022-07-10T08:28:31;19.10;1.00
17178;DHT22;8704;52.006;4.374;2022-07-10T08:31:00;19.20;1.00
17178;DHT22;8704;52.006;4.374;2022-07-10T08:33:29;19.20;99.90
17178;DHT22;8704;52.006;4.374;2022-07-10T08:35:57;19.20;1.00
17178;DHT22;8704;52.006;4.374;2022-07-10T08:38:46;19.20;1.00
17178;DHT22;8704;52.006;4.374;2022-07-10T08:41:15;19.30;1.00
17178;DHT22;8704;52.006;4.374;2022-07-10T08:43:45;19.40;99.90
17178;DHT22;8704;52.006;4.374;2022-07-10T08:46:14;19.50;99.90
17178;DHT22;8704;52.006;4.374;2022-07-10T08:48:44;19.60;99.90
17178;DHT22;8704;52.006;4.374;2022-07-10T08:51:21;19.50;99.90
17178;DHT22;8704;52.006;4.374;2022-07-10T08:53:51;19.50;99.60
17178;DHT22;8704;52.006;4.374;2022-07-10T08:56:19;19.50;99.90
17178;DHT22;8704;52.006;4.374;2022-07-10T08:58:47;19.50;99.90
17178;DHT22;8704;52.006;4.374;2022-07-10T09:01:19;19.60;1.00
17178;DHT22;8704;52.006;4.374;2022-07-10T09:03:50;19.60;1.00
17178;DHT22;8704;52.006;4.374;2022-07-10T09:06:18;19.60;1.00
17178;DHT22;8704;52.006;4.374;2022-07-10T09:09:03;19.50;99.90
17178;DHT22;8704;52.006;4.374;2022-07-10T09:11:31;19.60;99.90
17178;DHT22;8704;52.006;4.374;2022-07-10T09:14:01;19.80;1.00
17178;DHT22;8704;52.006;4.374;2022-07-10T09:16:33;19.90;99.90
17178;DHT22;8704;52.006;4.374;2022-07-10T09:19:16;20.00;1.00
17178;DHT22;8704;52.006;4.374;2022-07-10T09:21:44;19.90;93.10
17178;DHT22;8704;52.006;4.374;2022-07-10T09:24:12;20.10;1.00
17178;DHT22;8704;52.006;4.374;2022-07-10T09:26:41;19.80;1.00
17178;DHT22;8704;52.006;4.374;2022-07-10T09:29:12;19.80;99.90
17178;DHT22;8704;52.006;4.374;2022-07-10T09:31:52;19.70;99.90
17178;DHT22;8704;52.006;4.374;2022-07-10T09:34:35;19.90;99.90
17178;DHT22;8704;52.006;4.374;2022-07-10T09:37:20;20.00;1.00
17178;DHT22;8704;52.006;4.374;2022-07-10T09:39:54;19.90;1.00
17178;DHT22;8704;52.006;4.374;2022-07-10T09:42:27;19.90;1.00
17178;DHT22;8704;52.006;4.374;2022-07-10T09:45:17;20.10;1.00
17178;DHT22;8704;52.006;4.374;2022-07-10T09:47:55;20.10;99.90
17178;DHT22;8704;52.006;4.374;2022-07-10T09:50:26;20.30;99.90
17178;DHT22;8704;52.006;4.374;2022-07-10T09:52:56;20.40;99.90
17178;DHT22;8704;52.006;4.374;2022-07-10T09:55:25;20.30;99.90
17178;DHT22;8704;52.006;4.374;2022-07-10T09:57:55;20.40;99.90
17178;DHT22;8704;52.006;4.374;2022-07-10T10:00:25;20.60;94.00
17178;DHT22;8704;52.006;4.374;2022-07-10T10:02:57;20.60;99.90
17178;DHT22;8704;52.006;4.374;2022-07-10T10:05:34;20.70;99.90
17178;DHT22;8704;52.006;4.374;2022-07-10T10:08:11;20.50;1.00
17178;DHT22;8704;52.006;4.374;2022-07-10T10:10:49;20.70;99.90
17178;DHT22;8704;52.006;4.374;2022-07-10T10:13:19;20.70;1.00
17178;DHT22;8704;52.006;4.374;2022-07-10T10:15:48;20.80;99.90
17178;DHT22;8704;52.006;4.374;2022-07-10T10:18:20;20.90;40.90
17178;DHT22;8704;52.006;4.374;2022-07-10T10:20:49;20.90;99.90
17178;DHT22;8704;52.006;4.374;2022-07-10T10:23:18;21.10;1.00
17178;DHT22;8704;52.006;4.374;2022-07-10T10:25:48;21.30;1.00
17178;DHT22;8704;52.006;4.374;2022-07-10T10:28:18;21.40;1.00
17178;DHT22;8704;52.006;4.374;2022-07-10T10:30:51;21.50;1.00
17178;DHT22;8704;52.006;4.374;2022-07-10T10:33:44;21.50;1.00
17178;DHT22;8704;52.006;4.374;2022-07-10T10:36:14;21.50;1.00
17178;DHT22;8704;52.006;4.374;2022-07-10T10:39:00;21.50;1.00
17178;DHT22;8704;52.006;4.374;2022-07-10T10:41:30;21.20;99.90
17178;DHT22;8704;52.006;4.374;2022-07-10T10:44:24;21.50;99.90
17178;DHT22;8704;52.006;4.374;2022-07-10T10:46:55;21.40;99.90
17178;DHT22;8704;52.006;4.374;2022-07-10T10:49:51;21.50;99.90
17178;DHT22;8704;52.006;4.374;2022-07-10T10:52:20;21.40;99.90
17178;DHT22;8704;52.006;4.374;2022-07-10T10:55:08;21.50;99.90
17178;DHT22;8704;52.006;4.374;2022-07-10T10:57:42;21.50;99.90
17178;DHT22;8704;52.006;4.374;2022-07-10T11:00:30;21.70;99.90
17178;DHT22;8704;52.006;4.374;2022-07-10T11:03:18;21.80;99.90
17178;DHT22;8704;52.006;4.374;2022-07-10T11:05:48;21.80;99.90
17178;DHT22;8704;52.006;4.374;2022-07-10T11:08:36;21.80;99.90
17178;DHT22;8704;52.006;4.374;2022-07-10T11:11:39;21.80;99.90
17178;DHT22;8704;52.006;4.374;2022-07-10T11:14:09;22.00;99.90
17178;DHT22;8704;52.006;4.374;2022-07-10T11:16:46;22.30;93.70
17178;DHT22;8704;52.006;4.374;2022-07-10T11:19:23;22.30;79.10
17178;DHT22;8704;52.006;4.374;2022-07-10T11:25:00;22.70;80.70
17178;DHT22;8704;52.006;4.374;2022-07-10T11:27:41;22.40;25.80
17178;DHT22;8704;52.006;4.374;2022-07-10T11:30:15;22.30;19.20
17178;DHT22;8704;52.006;4.374;2022-07-10T11:32:43;22.40;13.50
17178;DHT22;8704;52.006;4.374;2022-07-10T11:35:12;22.80;22.50
17178;DHT22;8704;52.006;4.374;2022-07-10T11:37:50;22.90;22.80
17178;DHT22;8704;52.006;4.374;2022-07-10T11:40:19;23.10;9.00
17178;DHT22;8704;52.006;4.374;2022-07-10T11:42:51;23.20;19.10
17178;DHT22;8704;52.006;4.374;2022-07-10T11:45:27;23.50;1.00
17178;DHT22;8704;52.006;4.374;2022-07-10T11:47:56;23.50;1.00
17178;DHT22;8704;52.006;4.374;2022-07-10T11:50:24;23.80;5.90
17178;DHT22;8704;52.006;4.374;2022-07-10T11:52:54;23.80;1.00
17178;DHT22;8704;52.006;4.374;2022-07-10T11:55:23;24.00;1.00
17178;DHT22;8704;52.006;4.374;2022-07-10T11:57:55;24.00;1.00
17178;DHT22;8704;52.006;4.374;2022-07-10T12:00:25;24.20;1.00
17178;DHT22;8704;52.006;4.374;2022-07-10T12:02:54;24.20;1.00
17178;DHT22;8704;52.006;4.374;2022-07-10T12:05:36;24.20;1.00
17178;DHT22;8704;52.006;4.374;2022-07-10T12:08:06;24.50;1.00
17178;DHT22;8704;52.006;4.374;2022-07-10T12:10:34;24.60;1.00
17178;DHT22;8704;52.006;4.374;2022-07-10T12:13:06;24.60;1.00
17178;DHT22;8704;52.006;4.374;2022-07-10T12:15:35;24.30;1.00
17178;DHT22;8704;52.006;4.374;2022-07-10T12:18:05;24.70;1.00
17178;DHT22;8704;52.006;4.374;2022-07-10T12:20:34;24.80;1.00
17178;DHT22;8704;52.006;4.374;2022-07-10T12:23:03;24.50;1.00
17178;DHT22;8704;52.006;4.374;2022-07-10T12:25:33;24.30;1.00
17178;DHT22;8704;52.006;4.374;2022-07-10T12:28:01;24.10;1.00
17178;DHT22;8704;52.006;4.374;2022-07-10T12:30:37;24.20;1.00
17178;DHT22;8704;52.006;4.374;2022-07-10T12:33:10;24.50;1.00
17178;DHT22;8704;52.006;4.374;2022-07-10T12:35:54;24.80;1.00
17178;DHT22;8704;52.006;4.374;2022-07-10T12:38:23;25.00;1.00
17178;DHT22;8704;52.006;4.374;2022-07-10T12:41:06;24.70;1.00
17178;DHT22;8704;52.006;4.374;2022-07-10T12:43:35;25.00;1.00
17178;DHT22;8704;52.006;4.374;2022-07-10T12:46:13;24.80;1.00
17178;DHT22;8704;52.006;4.374;2022-07-10T12:48:43;25.00;1.00
17178;DHT22;8704;52.006;4.374;2022-07-10T12:51:25;25.20;1.00
17178;DHT22;8704;52.006;4.374;2022-07-10T12:53:53;25.20;1.00
17178;DHT22;8704;52.006;4.374;2022-07-10T12:56:33;25.20;1.00
17178;DHT22;8704;52.006;4.374;2022-07-10T12:59:04;25.50;1.00
17178;DHT22;8704;52.006;4.374;2022-07-10T13:01:40;26.20;1.00
17178;DHT22;8704;52.006;4.374;2022-07-10T13:04:08;25.80;1.00
17178;DHT22;8704;52.006;4.374;2022-07-10T13:06:37;25.60;35.90
17178;DHT22;8704;52.006;4.374;2022-07-10T13:09:20;25.60;99.90
17178;DHT22;8704;52.006;4.374;2022-07-10T13:11:50;25.10;18.90
17178;DHT22;8704;52.006;4.374;2022-07-10T13:14:18;25.20;1.00
17178;DHT22;8704;52.006;4.374;2022-07-10T13:16:46;25.40;1.00
17178;DHT22;8704;52.006;4.374;2022-07-10T13:19:14;25.20;1.00
17178;DHT22;8704;52.006;4.374;2022-07-10T13:21:42;25.50;1.00
17178;DHT22;8704;52.006;4.374;2022-07-10T13:24:10;25.60;1.00
17178;DHT22;8704;52.006;4.374;2022-07-10T13:26:38;25.80;1.00
17178;DHT22;8704;52.006;4.374;2022-07-10T13:29:08;25.40;1.00
17178;DHT22;8704;52.006;4.374;2022-07-10T13:31:35;25.50;1.00
17178;DHT22;8704;52.006;4.374;2022-07-10T13:34:04;26.10;1.00
17178;DHT22;8704;52.006;4.374;2022-07-10T13:36:32;26.10;1.00
17178;DHT22;8704;52.006;4.374;2022-07-10T13:39:00;26.10;1.00
17178;DHT22;8704;52.006;4.374;2022-07-10T13:41:28;25.80;1.00
17178;DHT22;8704;52.006;4.374;2022-07-10T13:43:55;25.90;1.00
17178;DHT22;8704;52.006;4.374;2022-07-10T13:46:25;25.60;1.00
17178;DHT22;8704;52.006;4.374;2022-07-10T13:48:53;25.60;1.00
17178;DHT22;8704;52.006;4.374;2022-07-10T13:51:21;25.50;1.00
17178;DHT22;8704;52.006;4.374;2022-07-10T13:53:49;25.70;1.00
17178;DHT22;8704;52.006;4.374;2022-07-10T13:56:16;25.40;1.00
17178;DHT22;8704;52.006;4.374;2022-07-10T13:58:44;25.50;1.00
17178;DHT22;8704;52.006;4.374;2022-07-10T14:01:12;25.30;1.00
17178;DHT22;8704;52.006;4.374;2022-07-10T14:03:42;25.50;1.00
17178;DHT22;8704;52.006;4.374;2022-07-10T14:06:10;25.70;1.00
17178;DHT22;8704;52.006;4.374;2022-07-10T14:08:38;25.40;1.00
17178;DHT22;8704;52.006;4.374;2022-07-10T14:11:06;25.60;1.00
17178;DHT22;8704;52.006;4.374;2022-07-10T14:13:35;25.60;1.00
17178;DHT22;8704;52.006;4.374;2022-07-10T14:16:03;25.70;1.00
17178;DHT22;8704;52.006;4.374;2022-07-10T14:18:32;26.30;99.90
17178;DHT22;8704;52.006;4.374;2022-07-10T14:21:07;26.50;1.00
17178;DHT22;8704;52.006;4.374;2022-07-10T14:23:37;26.90;1.00
17178;DHT22;8704;52.006;4.374;2022-07-10T14:26:08;27.30;32.40
17178;DHT22;8704;52.006;4.374;2022-07-10T14:28:36;27.70;46.80
17178;DHT22;8704;52.006;4.374;2022-07-10T14:31:06;27.60;39.60
17178;DHT22;8704;52.006;4.374;2022-07-10T14:33:35;27.30;69.20
17178;DHT22;8704;52.006;4.374;2022-07-10T14:36:03;27.10;99.90
17178;DHT22;8704;52.006;4.374;2022-07-10T14:38:34;27.10;99.90
17178;DHT22;8704;52.006;4.374;2022-07-10T14:41:03;27.60;99.90
17178;DHT22;8704;52.006;4.374;2022-07-10T14:43:32;27.50;99.90
17178;DHT22;8704;52.006;4.374;2022-07-10T14:46:01;27.10;99.90
17178;DHT22;8704;52.006;4.374;2022-07-10T14:48:31;27.60;99.90
17178;DHT22;8704;52.006;4.374;2022-07-10T14:50:59;27.80;78.60
17178;DHT22;8704;52.006;4.374;2022-07-10T14:53:28;27.80;73.40
17178;DHT22;8704;52.006;4.374;2022-07-10T14:55:57;27.70;85.90
17178;DHT22;8704;52.006;4.374;2022-07-10T14:58:25;28.00;80.00
17178;DHT22;8704;52.006;4.374;2022-07-10T15:00:53;28.30;54.10
17178;DHT22;8704;52.006;4.374;2022-07-10T15:03:21;28.40;53.10
17178;DHT22;8704;52.006;4.374;2022-07-10T15:05:49;28.20;47.00
17178;DHT22;8704;52.006;4.374;2022-07-10T15:08:19;28.50;30.10
17178;DHT22;8704;52.006;4.374;2022-07-10T15:10:47;29.00;27.00
17178;DHT22;8704;52.006;4.374;2022-07-10T15:13:17;28.70;26.80
17178;DHT22;8704;52.006;4.374;2022-07-10T15:15:45;29.20;21.50
17178;DHT22;8704;52.006;4.374;2022-07-10T15:18:14;29.50;9.80
17178;DHT22;8704;52.006;4.374;2022-07-10T15:20:42;29.90;8.70
17178;DHT22;8704;52.006;4.374;2022-07-10T15:23:10;30.30;1.00
17178;DHT22;8704;52.006;4.374;2022-07-10T15:25:39;30.30;1.00
17178;DHT22;8704;52.006;4.374;2022-07-10T15:28:07;30.20;1.00
17178;DHT22;8704;52.006;4.374;2022-07-10T15:30:37;29.80;1.00
17178;DHT22;8704;52.006;4.374;2022-07-10T15:33:06;30.10;1.70
17178;DHT22;8704;52.006;4.374;2022-07-10T15:35:34;29.50;1.00
17178;DHT22;8704;52.006;4.374;2022-07-10T15:38:02;29.20;4.20
17178;DHT22;8704;52.006;4.374;2022-07-10T15:40:30;28.70;7.00
17178;DHT22;8704;52.006;4.374;2022-07-10T15:42:58;28.00;11.40
17178;DHT22;8704;52.006;4.374;2022-07-10T15:45:27;28.00;12.10
17178;DHT22;8704;52.006;4.374;2022-07-10T15:47:56;28.20;23.10
17178;DHT22;8704;52.006;4.374;2022-07-10T15:50:24;28.00;54.80
17178;DHT22;8704;52.006;4.374;2022-07-10T15:52:59;28.40;3.90
17178;DHT22;8704;52.006;4.374;2022-07-10T15:55:27;27.80;1.00
17178;DHT22;8704;52.006;4.374;2022-07-10T15:57:55;28.00;1.00
17178;DHT22;8704;52.006;4.374;2022-07-10T16:00:24;27.10;1.00
17178;DHT22;8704;52.006;4.374;2022-07-10T16:02:52;27.00;1.00
17178;DHT22;8704;52.006;4.374;2022-07-10T16:05:25;26.50;99.90
17178;DHT22;8704;52.006;4.374;2022-07-10T16:07:53;26.40;99.90
17178;DHT22;8704;52.006;4.374;2022-07-10T16:10:21;26.30;99.90
17178;DHT22;8704;52.006;4.374;2022-07-10T16:12:48;26.30;1.00
17178;DHT22;8704;52.006;4.374;2022-07-10T16:15:16;26.70;69.10